Madison Heights, VA (24572)

3:18 PM EDT on July 28, 2016 (GMT -0400)
Concord Turnpike | | Change Station

Elev 543 ft 37.40 °N, 79.11 °W | Updated 3 minutes ago

Scattered Clouds
Scattered Clouds
92.1 °F
Feels Like 99 °F
N
4.0
Wind Variable Wind from WSW
Gusts 6.1 mph

Today
High -- | Low -- °F
--% Chance of Precip.
Yesterday
High -- | Low -- °F
Precip. -- in
Pressure 29.86 in
Visibility 10.0 miles
Clouds Scattered Clouds 4500 ft
Heat Index 99 °F
Dew Point 71 °F
Humidity 50%
Rainfall 0.00 in
Snow Depth Not available.
6:17 AM 8:27 PM
Waning Crescent, 29% visible
METAR KLYH 281854Z 22007KT 10SM SCT045 33/22 A2989 RMK AO2 SLP109 T03280222
Pressure 29.86 in
Visibility 10.0 miles
Clouds Scattered Clouds 4500 ft
Heat Index 99 °F
Dew Point 71 °F
Humidity 50%
Rainfall 0.00 in
Snow Depth Not available.
6:17 AM 8:27 PM
Waning Crescent, 29% visible
METAR KLYH 281854Z 22007KT 10SM SCT045 33/22 A2989 RMK AO2 SLP109 T03280222

10-Day Weather Forecast

Almanac

Astronomy

Jul. 28, 2016 Rise Set
Actual Time
Civil Twilight
Nautical Twilight
Astronomical Twilight
Moon
Length of Visible Light
Length of Day
Tomorrow will be .
, % of the Moon is Illuminated

Today's Extremes

State Highs State Lows

Community

WunderPhotos

Upload Photos

1,928,188 photos uploaded!

WunderBlog® & News

Nearby

Air Quality

  Air Quality AQ Index Pollutant
Not available.

Snow Depth

Station Depth Elevation

Earthquake Activity

City Distance Mag. Time & Date
Minimum magnitude displayed is 2.5.

Coastal Water Temperatures

Place Temperature

Stations

Nearby Weather Stations

Station Location Temp. Windchill Dew Point Humidity Wind Precip. Elev Updated Type
                   

Watches & Warnings

Severe Thunderstorm Watch
Issued: 3:03 PM EDT Jul. 28, 2016 – National Weather Service

Severe Thunderstorm Watch 419 remains in effect until 1000 PM EDT
for the following locations


VA
. Virginia counties included are

Alleghany Amherst Appomattox
Bath Bedford Bland
Botetourt Buckingham Campbell
Carroll Craig Floyd
Franklin Giles Grayson
Henry Montgomery Patrick
Pittsylvania Pulaski Roanoke
Rockbridge Smyth Tazewell
Wythe


Virginia independent cities included are

Buena Vista Covington Danville
Galax Lexington Lynchburg
Martinsville Radford Roanoke
Salem